sensor_id;sensor_type;location;lat;lon;timestamp;P1;durP1;ratioP1;P2;durP2;ratioP2
14292;SDS011;62290;59.420;17.842;2023-12-20T00:01:20;5.72;;;1.50;;
14292;SDS011;62290;59.420;17.842;2023-12-20T00:03:50;5.93;;;1.63;;
14292;SDS011;62290;59.420;17.842;2023-12-20T00:06:18;5.55;;;1.65;;
14292;SDS011;62290;59.420;17.842;2023-12-20T00:08:46;5.55;;;1.40;;
14292;SDS011;62290;59.420;17.842;2023-12-20T00:11:14;3.78;;;1.65;;
14292;SDS011;62290;59.420;17.842;2023-12-20T00:13:42;5.30;;;1.15;;
14292;SDS011;62290;59.420;17.842;2023-12-20T00:16:13;4.07;;;1.27;;
14292;SDS011;62290;59.420;17.842;2023-12-20T00:18:41;4.72;;;1.52;;
14292;SDS011;62290;59.420;17.842;2023-12-20T00:21:10;6.88;;;1.58;;
14292;SDS011;62290;59.420;17.842;2023-12-20T00:23:38;4.82;;;1.60;;
14292;SDS011;62290;59.420;17.842;2023-12-20T00:26:06;2.42;;;1.30;;
14292;SDS011;62290;59.420;17.842;2023-12-20T00:28:34;5.10;;;1.33;;
14292;SDS011;62290;59.420;17.842;2023-12-20T00:31:02;3.22;;;1.30;;
14292;SDS011;62290;59.420;17.842;2023-12-20T00:33:31;3.63;;;1.42;;
14292;SDS011;62290;59.420;17.842;2023-12-20T00:35:59;5.70;;;1.48;;
14292;SDS011;62290;59.420;17.842;2023-12-20T00:38:28;5.20;;;1.70;;
14292;SDS011;62290;59.420;17.842;2023-12-20T00:40:56;5.93;;;1.65;;
14292;SDS011;62290;59.420;17.842;2023-12-20T00:43:24;4.68;;;1.77;;
14292;SDS011;62290;59.420;17.842;2023-12-20T00:45:53;3.83;;;1.05;;
14292;SDS011;62290;59.420;17.842;2023-12-20T00:48:21;5.70;;;1.70;;
14292;SDS011;62290;59.420;17.842;2023-12-20T00:50:49;5.60;;;1.27;;
14292;SDS011;62290;59.420;17.842;2023-12-20T00:53:17;6.40;;;1.83;;
14292;SDS011;62290;59.420;17.842;2023-12-20T00:55:47;5.00;;;1.63;;
14292;SDS011;62290;59.420;17.842;2023-12-20T00:58:15;6.82;;;1.80;;
14292;SDS011;62290;59.420;17.842;2023-12-20T01:00:43;6.60;;;1.80;;
14292;SDS011;62290;59.420;17.842;2023-12-20T01:03:12;4.55;;;1.77;;
14292;SDS011;62290;59.420;17.842;2023-12-20T01:05:41;5.10;;;1.75;;
14292;SDS011;62290;59.420;17.842;2023-12-20T01:08:09;5.85;;;1.52;;
14292;SDS011;62290;59.420;17.842;2023-12-20T01:10:37;6.78;;;1.52;;
14292;SDS011;62290;59.420;17.842;2023-12-20T01:13:06;5.30;;;1.70;;
14292;SDS011;62290;59.420;17.842;2023-12-20T01:15:35;6.05;;;1.70;;
14292;SDS011;62290;59.420;17.842;2023-12-20T01:18:03;4.65;;;1.60;;
14292;SDS011;62290;59.420;17.842;2023-12-20T01:20:31;5.72;;;1.60;;
14292;SDS011;62290;59.420;17.842;2023-12-20T01:22:59;5.35;;;1.38;;
14292;SDS011;62290;59.420;17.842;2023-12-20T01:25:27;8.30;;;2.38;;
14292;SDS011;62290;59.420;17.842;2023-12-20T01:27:55;3.92;;;1.50;;
14292;SDS011;62290;59.420;17.842;2023-12-20T01:30:24;5.25;;;1.98;;
14292;SDS011;62290;59.420;17.842;2023-12-20T01:32:52;4.85;;;1.42;;
14292;SDS011;62290;59.420;17.842;2023-12-20T01:35:20;5.63;;;1.67;;
14292;SDS011;62290;59.420;17.842;2023-12-20T01:37:48;5.63;;;1.60;;
14292;SDS011;62290;59.420;17.842;2023-12-20T01:40:16;4.97;;;2.10;;
14292;SDS011;62290;59.420;17.842;2023-12-20T01:42:44;4.25;;;1.30;;
14292;SDS011;62290;59.420;17.842;2023-12-20T01:45:13;4.43;;;1.52;;
14292;SDS011;62290;59.420;17.842;2023-12-20T01:47:42;6.05;;;1.38;;
14292;SDS011;62290;59.420;17.842;2023-12-20T01:50:10;4.95;;;1.42;;
14292;SDS011;62290;59.420;17.842;2023-12-20T01:52:38;3.63;;;1.02;;
14292;SDS011;62290;59.420;17.842;2023-12-20T01:55:06;6.53;;;1.63;;
14292;SDS011;62290;59.420;17.842;2023-12-20T01:57:40;4.43;;;1.38;;
14292;SDS011;62290;59.420;17.842;2023-12-20T02:00:09;7.03;;;1.52;;
14292;SDS011;62290;59.420;17.842;2023-12-20T02:02:40;6.68;;;1.40;;
14292;SDS011;62290;59.420;17.842;2023-12-20T02:05:10;5.72;;;1.40;;
14292;SDS011;62290;59.420;17.842;2023-12-20T02:07:38;3.00;;;1.20;;
14292;SDS011;62290;59.420;17.842;2023-12-20T02:10:07;3.90;;;1.27;;
14292;SDS011;62290;59.420;17.842;2023-12-20T02:12:35;9.30;;;1.20;;
14292;SDS011;62290;59.420;17.842;2023-12-20T02:15:04;5.88;;;1.48;;
14292;SDS011;62290;59.420;17.842;2023-12-20T02:17:32;5.43;;;1.70;;
14292;SDS011;62290;59.420;17.842;2023-12-20T02:20:03;5.45;;;1.20;;
14292;SDS011;62290;59.420;17.842;2023-12-20T02:22:33;3.72;;;1.70;;
14292;SDS011;62290;59.420;17.842;2023-12-20T02:25:02;7.00;;;1.48;;
14292;SDS011;62290;59.420;17.842;2023-12-20T02:27:30;5.22;;;1.58;;
14292;SDS011;62290;59.420;17.842;2023-12-20T02:29:58;4.32;;;1.50;;
14292;SDS011;62290;59.420;17.842;2023-12-20T02:32:26;3.65;;;1.23;;
14292;SDS011;62290;59.420;17.842;2023-12-20T02:34:55;7.82;;;1.80;;
14292;SDS011;62290;59.420;17.842;2023-12-20T02:37:24;6.32;;;1.55;;
14292;SDS011;62290;59.420;17.842;2023-12-20T02:39:53;4.68;;;1.33;;
14292;SDS011;62290;59.420;17.842;2023-12-20T02:42:21;4.68;;;1.45;;
14292;SDS011;62290;59.420;17.842;2023-12-20T02:44:49;6.32;;;1.60;;
14292;SDS011;62290;59.420;17.842;2023-12-20T02:47:17;6.72;;;1.80;;
14292;SDS011;62290;59.420;17.842;2023-12-20T02:49:45;3.95;;;1.35;;
14292;SDS011;62290;59.420;17.842;2023-12-20T02:52:13;6.35;;;1.42;;
14292;SDS011;62290;59.420;17.842;2023-12-20T02:54:41;4.97;;;1.23;;
14292;SDS011;62290;59.420;17.842;2023-12-20T02:57:10;4.63;;;1.20;;
14292;SDS011;62290;59.420;17.842;2023-12-20T02:59:39;3.55;;;1.33;;
14292;SDS011;62290;59.420;17.842;2023-12-20T03:02:07;5.00;;;1.50;;
14292;SDS011;62290;59.420;17.842;2023-12-20T03:04:35;7.45;;;2.00;;
14292;SDS011;62290;59.420;17.842;2023-12-20T03:07:03;4.15;;;1.55;;
14292;SDS011;62290;59.420;17.842;2023-12-20T03:09:31;4.82;;;1.52;;
14292;SDS011;62290;59.420;17.842;2023-12-20T03:12:20;5.47;;;1.20;;
14292;SDS011;62290;59.420;17.842;2023-12-20T03:14:49;4.65;;;1.13;;
14292;SDS011;62290;59.420;17.842;2023-12-20T03:17:17;5.10;;;1.00;;
14292;SDS011;62290;59.420;17.842;2023-12-20T03:19:45;3.90;;;1.55;;
14292;SDS011;62290;59.420;17.842;2023-12-20T03:22:13;5.50;;;1.48;;
14292;SDS011;62290;59.420;17.842;2023-12-20T03:24:41;5.90;;;1.63;;
14292;SDS011;62290;59.420;17.842;2023-12-20T03:27:09;3.45;;;1.35;;
14292;SDS011;62290;59.420;17.842;2023-12-20T03:29:38;5.40;;;1.70;;
14292;SDS011;62290;59.420;17.842;2023-12-20T03:32:06;4.68;;;1.25;;
14292;SDS011;62290;59.420;17.842;2023-12-20T03:34:35;4.95;;;1.60;;
14292;SDS011;62290;59.420;17.842;2023-12-20T03:37:03;2.17;;;1.17;;
14292;SDS011;62290;59.420;17.842;2023-12-20T03:39:31;4.18;;;1.13;;
14292;SDS011;62290;59.420;17.842;2023-12-20T03:41:59;4.68;;;1.65;;
14292;SDS011;62290;59.420;17.842;2023-12-20T03:44:27;3.22;;;1.20;;
14292;SDS011;62290;59.420;17.842;2023-12-20T03:46:56;5.13;;;1.45;;
14292;SDS011;62290;59.420;17.842;2023-12-20T03:49:24;4.93;;;1.40;;
14292;SDS011;62290;59.420;17.842;2023-12-20T03:51:52;3.80;;;1.35;;
14292;SDS011;62290;59.420;17.842;2023-12-20T03:54:20;5.20;;;1.48;;
14292;SDS011;62290;59.420;17.842;2023-12-20T03:56:48;5.93;;;1.58;;
14292;SDS011;62290;59.420;17.842;2023-12-20T03:59:16;4.28;;;1.85;;
14292;SDS011;62290;59.420;17.842;2023-12-20T04:01:45;4.32;;;1.42;;
14292;SDS011;62290;59.420;17.842;2023-12-20T04:04:14;5.13;;;1.65;;
14292;SDS011;62290;59.420;17.842;2023-12-20T04:06:42;6.03;;;1.77;;
14292;SDS011;62290;59.420;17.842;2023-12-20T04:09:11;5.15;;;1.17;;
14292;SDS011;62290;59.420;17.842;2023-12-20T04:11:39;6.85;;;1.50;;
14292;SDS011;62290;59.420;17.842;2023-12-20T04:14:07;4.93;;;1.10;;
14292;SDS011;62290;59.420;17.842;2023-12-20T04:16:35;4.55;;;1.40;;
14292;SDS011;62290;59.420;17.842;2023-12-20T04:19:03;3.08;;;1.23;;
14292;SDS011;62290;59.420;17.842;2023-12-20T04:21:32;6.07;;;1.55;;
14292;SDS011;62290;59.420;17.842;2023-12-20T04:24:00;4.70;;;1.55;;
14292;SDS011;62290;59.420;17.842;2023-12-20T04:26:28;4.53;;;1.20;;
14292;SDS011;62290;59.420;17.842;2023-12-20T04:28:57;4.07;;;1.17;;
14292;SDS011;62290;59.420;17.842;2023-12-20T04:31:25;2.75;;;1.20;;
14292;SDS011;62290;59.420;17.842;2023-12-20T04:33:53;4.35;;;1.20;;
14292;SDS011;62290;59.420;17.842;2023-12-20T04:36:21;3.78;;;1.08;;
14292;SDS011;62290;59.420;17.842;2023-12-20T04:38:50;6.15;;;1.30;;
14292;SDS011;62290;59.420;17.842;2023-12-20T04:41:18;4.63;;;1.40;;
14292;SDS011;62290;59.420;17.842;2023-12-20T04:43:46;6.72;;;1.50;;
14292;SDS011;62290;59.420;17.842;2023-12-20T04:46:14;4.07;;;1.40;;
14292;SDS011;62290;59.420;17.842;2023-12-20T04:48:42;3.92;;;1.30;;
14292;SDS011;62290;59.420;17.842;2023-12-20T04:51:10;6.47;;;1.30;;
14292;SDS011;62290;59.420;17.842;2023-12-20T04:53:38;3.47;;;1.00;;
14292;SDS011;62290;59.420;17.842;2023-12-20T04:56:07;2.42;;;1.00;;
14292;SDS011;62290;59.420;17.842;2023-12-20T04:58:35;3.85;;;1.10;;
14292;SDS011;62290;59.420;17.842;2023-12-20T05:01:03;3.33;;;1.60;;
14292;SDS011;62290;59.420;17.842;2023-12-20T05:03:33;4.70;;;1.40;;
14292;SDS011;62290;59.420;17.842;2023-12-20T05:06:01;2.92;;;1.20;;
14292;SDS011;62290;59.420;17.842;2023-12-20T05:08:29;3.97;;;1.40;;
14292;SDS011;62290;59.420;17.842;2023-12-20T05:10:57;3.45;;;0.98;;
14292;SDS011;62290;59.420;17.842;2023-12-20T05:13:27;2.50;;;0.95;;
14292;SDS011;62290;59.420;17.842;2023-12-20T05:16:07;3.28;;;1.20;;
14292;SDS011;62290;59.420;17.842;2023-12-20T05:18:36;2.75;;;1.00;;
14292;SDS011;62290;59.420;17.842;2023-12-20T05:21:04;3.42;;;0.93;;
14292;SDS011;62290;59.420;17.842;2023-12-20T05:23:32;3.78;;;1.00;;
14292;SDS011;62290;59.420;17.842;2023-12-20T05:26:00;1.83;;;0.90;;
14292;SDS011;62290;59.420;17.842;2023-12-20T05:28:29;2.47;;;1.20;;
14292;SDS011;62290;59.420;17.842;2023-12-20T05:30:57;4.47;;;1.23;;
14292;SDS011;62290;59.420;17.842;2023-12-20T05:33:25;3.38;;;1.10;;
14292;SDS011;62290;59.420;17.842;2023-12-20T05:35:53;3.95;;;1.67;;
14292;SDS011;62290;59.420;17.842;2023-12-20T05:38:21;3.38;;;1.13;;
14292;SDS011;62290;59.420;17.842;2023-12-20T05:40:49;4.28;;;1.08;;
14292;SDS011;62290;59.420;17.842;2023-12-20T05:43:17;2.95;;;1.27;;
14292;SDS011;62290;59.420;17.842;2023-12-20T05:45:47;2.20;;;1.13;;
14292;SDS011;62290;59.420;17.842;2023-12-20T05:48:15;5.25;;;1.10;;
14292;SDS011;62290;59.420;17.842;2023-12-20T05:50:43;2.47;;;1.10;;
14292;SDS011;62290;59.420;17.842;2023-12-20T05:53:11;5.13;;;1.10;;
14292;SDS011;62290;59.420;17.842;2023-12-20T05:55:39;4.80;;;1.27;;
14292;SDS011;62290;59.420;17.842;2023-12-20T05:58:07;3.60;;;1.35;;
14292;SDS011;62290;59.420;17.842;2023-12-20T06:00:35;3.20;;;1.10;;
14292;SDS011;62290;59.420;17.842;2023-12-20T06:03:05;4.55;;;1.45;;
14292;SDS011;62290;59.420;17.842;2023-12-20T06:05:33;4.97;;;1.42;;
14292;SDS011;62290;59.420;17.842;2023-12-20T06:08:01;3.67;;;1.17;;
14292;SDS011;62290;59.420;17.842;2023-12-20T06:10:29;2.53;;;1.02;;
14292;SDS011;62290;59.420;17.842;2023-12-20T06:12:57;3.75;;;1.20;;
14292;SDS011;62290;59.420;17.842;2023-12-20T06:15:27;2.80;;;1.08;;
14292;SDS011;62290;59.420;17.842;2023-12-20T06:17:55;5.70;;;1.20;;
14292;SDS011;62290;59.420;17.842;2023-12-20T06:20:24;4.65;;;1.50;;
14292;SDS011;62290;59.420;17.842;2023-12-20T06:22:53;3.20;;;0.95;;
14292;SDS011;62290;59.420;17.842;2023-12-20T06:25:21;3.15;;;1.33;;
14292;SDS011;62290;59.420;17.842;2023-12-20T06:27:49;2.47;;;1.10;;
14292;SDS011;62290;59.420;17.842;2023-12-20T06:30:17;3.20;;;1.35;;
14292;SDS011;62290;59.420;17.842;2023-12-20T06:32:46;5.35;;;1.33;;
14292;SDS011;62290;59.420;17.842;2023-12-20T06:35:14;3.03;;;1.52;;
14292;SDS011;62290;59.420;17.842;2023-12-20T06:37:43;2.88;;;1.15;;
14292;SDS011;62290;59.420;17.842;2023-12-20T06:40:12;3.90;;;1.45;;
14292;SDS011;62290;59.420;17.842;2023-12-20T06:42:44;5.05;;;1.35;;
14292;SDS011;62290;59.420;17.842;2023-12-20T06:45:27;3.53;;;1.00;;
14292;SDS011;62290;59.420;17.842;2023-12-20T06:47:55;2.67;;;1.13;;
14292;SDS011;62290;59.420;17.842;2023-12-20T06:50:23;4.35;;;1.25;;
14292;SDS011;62290;59.420;17.842;2023-12-20T06:52:52;6.40;;;4.10;;
14292;SDS011;62290;59.420;17.842;2023-12-20T06:55:20;5.20;;;1.98;;
14292;SDS011;62290;59.420;17.842;2023-12-20T06:57:48;9.25;;;2.40;;
14292;SDS011;62290;59.420;17.842;2023-12-20T07:00:17;6.35;;;1.90;;
14292;SDS011;62290;59.420;17.842;2023-12-20T07:02:47;9.40;;;2.30;;
14292;SDS011;62290;59.420;17.842;2023-12-20T07:05:16;12.07;;;2.10;;
14292;SDS011;62290;59.420;17.842;2023-12-20T07:07:46;7.00;;;1.73;;
14292;SDS011;62290;59.420;17.842;2023-12-20T07:10:16;8.88;;;1.90;;
14292;SDS011;62290;59.420;17.842;2023-12-20T07:12:44;7.57;;;2.08;;
14292;SDS011;62290;59.420;17.842;2023-12-20T07:15:12;6.68;;;1.70;;
14292;SDS011;62290;59.420;17.842;2023-12-20T07:17:40;9.68;;;2.22;;
14292;SDS011;62290;59.420;17.842;2023-12-20T07:20:09;4.72;;;1.55;;
14292;SDS011;62290;59.420;17.842;2023-12-20T07:22:38;6.53;;;2.17;;
14292;SDS011;62290;59.420;17.842;2023-12-20T07:25:06;4.97;;;1.67;;
14292;SDS011;62290;59.420;17.842;2023-12-20T07:27:36;7.35;;;2.13;;
14292;SDS011;62290;59.420;17.842;2023-12-20T07:30:07;5.97;;;2.40;;
14292;SDS011;62290;59.420;17.842;2023-12-20T07:32:36;7.93;;;2.15;;
14292;SDS011;62290;59.420;17.842;2023-12-20T07:35:04;8.45;;;2.25;;
14292;SDS011;62290;59.420;17.842;2023-12-20T07:37:33;6.90;;;1.90;;
14292;SDS011;62290;59.420;17.842;2023-12-20T07:40:01;9.25;;;2.00;;
14292;SDS011;62290;59.420;17.842;2023-12-20T07:42:30;7.30;;;1.90;;
14292;SDS011;62290;59.420;17.842;2023-12-20T07:44:59;6.75;;;2.42;;
14292;SDS011;62290;59.420;17.842;2023-12-20T07:47:27;5.95;;;2.30;;
14292;SDS011;62290;59.420;17.842;2023-12-20T07:49:55;9.75;;;3.03;;
14292;SDS011;62290;59.420;17.842;2023-12-20T07:52:23;6.03;;;2.38;;
14292;SDS011;62290;59.420;17.842;2023-12-20T07:54:52;7.80;;;2.83;;
14292;SDS011;62290;59.420;17.842;2023-12-20T07:57:20;6.85;;;1.83;;
14292;SDS011;62290;59.420;17.842;2023-12-20T07:59:48;7.97;;;2.40;;
14292;SDS011;62290;59.420;17.842;2023-12-20T08:02:17;7.38;;;2.53;;
14292;SDS011;62290;59.420;17.842;2023-12-20T08:04:45;8.55;;;2.17;;
14292;SDS011;62290;59.420;17.842;2023-12-20T08:07:13;7.57;;;2.28;;
14292;SDS011;62290;59.420;17.842;2023-12-20T08:09:41;9.38;;;2.38;;
14292;SDS011;62290;59.420;17.842;2023-12-20T08:12:10;8.73;;;2.70;;
14292;SDS011;62290;59.420;17.842;2023-12-20T08:14:38;6.40;;;2.13;;
14292;SDS011;62290;59.420;17.842;2023-12-20T08:17:06;5.72;;;2.38;;
14292;SDS011;62290;59.420;17.842;2023-12-20T08:19:35;8.27;;;2.90;;
14292;SDS011;62290;59.420;17.842;2023-12-20T08:22:03;6.55;;;2.58;;
14292;SDS011;62290;59.420;17.842;2023-12-20T08:24:31;5.85;;;2.50;;
14292;SDS011;62290;59.420;17.842;2023-12-20T08:26:59;9.20;;;3.17;;
14292;SDS011;62290;59.420;17.842;2023-12-20T08:29:27;7.32;;;2.42;;
14292;SDS011;62290;59.420;17.842;2023-12-20T08:31:55;5.80;;;2.50;;
14292;SDS011;62290;59.420;17.842;2023-12-20T08:34:24;7.88;;;2.40;;
14292;SDS011;62290;59.420;17.842;2023-12-20T08:36:53;8.13;;;3.15;;
14292;SDS011;62290;59.420;17.842;2023-12-20T08:39:21;7.90;;;2.70;;
14292;SDS011;62290;59.420;17.842;2023-12-20T08:41:49;8.60;;;2.47;;
14292;SDS011;62290;59.420;17.842;2023-12-20T08:44:17;8.63;;;2.38;;
14292;SDS011;62290;59.420;17.842;2023-12-20T08:46:45;6.85;;;2.42;;
14292;SDS011;62290;59.420;17.842;2023-12-20T08:49:13;5.90;;;2.20;;
14292;SDS011;62290;59.420;17.842;2023-12-20T08:51:41;9.00;;;2.88;;
14292;SDS011;62290;59.420;17.842;2023-12-20T08:54:11;4.95;;;2.17;;
14292;SDS011;62290;59.420;17.842;2023-12-20T08:56:39;6.22;;;2.90;;
14292;SDS011;62290;59.420;17.842;2023-12-20T08:59:07;9.15;;;2.75;;
14292;SDS011;62290;59.420;17.842;2023-12-20T09:01:35;6.97;;;2.00;;
14292;SDS011;62290;59.420;17.842;2023-12-20T09:04:04;6.88;;;2.13;;
14292;SDS011;62290;59.420;17.842;2023-12-20T09:06:33;7.03;;;2.28;;
14292;SDS011;62290;59.420;17.842;2023-12-20T09:09:00;7.53;;;2.47;;
14292;SDS011;62290;59.420;17.842;2023-12-20T09:11:30;5.15;;;2.15;;
14292;SDS011;62290;59.420;17.842;2023-12-20T09:13:58;4.85;;;1.85;;
14292;SDS011;62290;59.420;17.842;2023-12-20T09:16:26;7.97;;;2.35;;
14292;SDS011;62290;59.420;17.842;2023-12-20T09:18:54;6.57;;;2.42;;
14292;SDS011;62290;59.420;17.842;2023-12-20T09:21:22;6.53;;;2.28;;
14292;SDS011;62290;59.420;17.842;2023-12-20T09:23:50;7.55;;;2.33;;
14292;SDS011;62290;59.420;17.842;2023-12-20T09:26:18;9.75;;;2.35;;
14292;SDS011;62290;59.420;17.842;2023-12-20T09:28:48;5.07;;;2.10;;
14292;SDS011;62290;59.420;17.842;2023-12-20T09:31:16;3.97;;;2.17;;
14292;SDS011;62290;59.420;17.842;2023-12-20T09:33:44;5.22;;;1.88;;
14292;SDS011;62290;59.420;17.842;2023-12-20T09:36:12;6.35;;;2.20;;
14292;SDS011;62290;59.420;17.842;2023-12-20T09:38:40;4.45;;;2.13;;
14292;SDS011;62290;59.420;17.842;2023-12-20T09:41:12;5.05;;;2.33;;
14292;SDS011;62290;59.420;17.842;2023-12-20T09:43:41;8.07;;;2.22;;
14292;SDS011;62290;59.420;17.842;2023-12-20T09:46:11;4.20;;;2.00;;
14292;SDS011;62290;59.420;17.842;2023-12-20T09:48:43;4.13;;;1.90;;
14292;SDS011;62290;59.420;17.842;2023-12-20T09:51:12;8.70;;;2.17;;
14292;SDS011;62290;59.420;17.842;2023-12-20T09:53:40;8.60;;;1.85;;
14292;SDS011;62290;59.420;17.842;2023-12-20T09:56:10;5.70;;;2.08;;
14292;SDS011;62290;59.420;17.842;2023-12-20T09:58:39;7.40;;;2.10;;
14292;SDS011;62290;59.420;17.842;2023-12-20T10:01:07;5.38;;;2.10;;
14292;SDS011;62290;59.420;17.842;2023-12-20T10:03:37;5.30;;;1.88;;
14292;SDS011;62290;59.420;17.842;2023-12-20T10:06:08;4.50;;;2.05;;
14292;SDS011;62290;59.420;17.842;2023-12-20T10:08:38;7.30;;;2.22;;
14292;SDS011;62290;59.420;17.842;2023-12-20T10:11:06;7.03;;;2.47;;
14292;SDS011;62290;59.420;17.842;2023-12-20T10:13:34;4.60;;;1.90;;
14292;SDS011;62290;59.420;17.842;2023-12-20T10:16:07;5.28;;;2.10;;
14292;SDS011;62290;59.420;17.842;2023-12-20T10:18:36;6.28;;;1.90;;
14292;SDS011;62290;59.420;17.842;2023-12-20T10:21:05;5.70;;;1.55;;
14292;SDS011;62290;59.420;17.842;2023-12-20T10:23:34;3.55;;;1.65;;
14292;SDS011;62290;59.420;17.842;2023-12-20T10:26:02;4.38;;;1.75;;
14292;SDS011;62290;59.420;17.842;2023-12-20T10:28:32;5.45;;;2.00;;
14292;SDS011;62290;59.420;17.842;2023-12-20T10:31:02;4.07;;;1.73;;
14292;SDS011;62290;59.420;17.842;2023-12-20T10:33:30;5.75;;;1.60;;
14292;SDS011;62290;59.420;17.842;2023-12-20T10:36:01;5.72;;;1.80;;
14292;SDS011;62290;59.420;17.842;2023-12-20T10:38:30;5.30;;;1.88;;
14292;SDS011;62290;59.420;17.842;2023-12-20T10:40:58;4.80;;;2.08;;
14292;SDS011;62290;59.420;17.842;2023-12-20T10:43:26;6.70;;;1.70;;
14292;SDS011;62290;59.420;17.842;2023-12-20T10:45:58;5.47;;;1.98;;
14292;SDS011;62290;59.420;17.842;2023-12-20T10:48:27;4.70;;;1.92;;
14292;SDS011;62290;59.420;17.842;2023-12-20T10:50:57;2.55;;;1.45;;
14292;SDS011;62290;59.420;17.842;2023-12-20T10:53:27;5.78;;;1.95;;
14292;SDS011;62290;59.420;17.842;2023-12-20T10:55:55;5.07;;;1.85;;
14292;SDS011;62290;59.420;17.842;2023-12-20T10:58:24;5.20;;;1.90;;
14292;SDS011;62290;59.420;17.842;2023-12-20T11:00:54;5.85;;;1.98;;
14292;SDS011;62290;59.420;17.842;2023-12-20T11:03:28;5.68;;;1.90;;
14292;SDS011;62290;59.420;17.842;2023-12-20T11:06:01;5.53;;;1.67;;
14292;SDS011;62290;59.420;17.842;2023-12-20T11:08:39;4.35;;;1.58;;
14292;SDS011;62290;59.420;17.842;2023-12-20T11:11:14;4.03;;;2.03;;
14292;SDS011;62290;59.420;17.842;2023-12-20T11:13:53;4.38;;;1.67;;
14292;SDS011;62290;59.420;17.842;2023-12-20T11:16:25;4.57;;;1.95;;
14292;SDS011;62290;59.420;17.842;2023-12-20T11:19:06;6.15;;;2.05;;
14292;SDS011;62290;59.420;17.842;2023-12-20T11:21:34;2.58;;;1.20;;
14292;SDS011;62290;59.420;17.842;2023-12-20T11:24:04;5.45;;;1.92;;
14292;SDS011;62290;59.420;17.842;2023-12-20T11:26:32;6.90;;;1.58;;
14292;SDS011;62290;59.420;17.842;2023-12-20T11:32:01;2.90;;;1.70;;
14292;SDS011;62290;59.420;17.842;2023-12-20T11:34:31;3.75;;;1.52;;
14292;SDS011;62290;59.420;17.842;2023-12-20T11:37:02;2.78;;;1.60;;
14292;SDS011;62290;59.420;17.842;2023-12-20T11:39:32;4.32;;;1.80;;
14292;SDS011;62290;59.420;17.842;2023-12-20T11:42:03;3.20;;;1.50;;
14292;SDS011;62290;59.420;17.842;2023-12-20T11:44:32;3.72;;;1.48;;
14292;SDS011;62290;59.420;17.842;2023-12-20T11:47:00;4.18;;;1.30;;
14292;SDS011;62290;59.420;17.842;2023-12-20T11:49:28;3.17;;;1.50;;
14292;SDS011;62290;59.420;17.842;2023-12-20T11:51:57;4.22;;;1.35;;
14292;SDS011;62290;59.420;17.842;2023-12-20T11:54:27;3.75;;;1.55;;
14292;SDS011;62290;59.420;17.842;2023-12-20T11:56:56;2.22;;;1.38;;
14292;SDS011;62290;59.420;17.842;2023-12-20T11:59:24;3.63;;;1.55;;
14292;SDS011;62290;59.420;17.842;2023-12-20T12:01:52;3.72;;;1.63;;
14292;SDS011;62290;59.420;17.842;2023-12-20T12:04:23;4.30;;;1.58;;
14292;SDS011;62290;59.420;17.842;2023-12-20T12:06:53;3.25;;;1.50;;
14292;SDS011;62290;59.420;17.842;2023-12-20T12:09:21;3.13;;;1.58;;
14292;SDS011;62290;59.420;17.842;2023-12-20T12:11:49;2.95;;;1.30;;
14292;SDS011;62290;59.420;17.842;2023-12-20T12:14:18;2.35;;;1.02;;
14292;SDS011;62290;59.420;17.842;2023-12-20T12:16:47;2.47;;;1.15;;
14292;SDS011;62290;59.420;17.842;2023-12-20T12:19:22;2.53;;;1.40;;
14292;SDS011;62290;59.420;17.842;2023-12-20T12:21:51;3.28;;;1.27;;
14292;SDS011;62290;59.420;17.842;2023-12-20T12:24:20;2.63;;;1.60;;
14292;SDS011;62290;59.420;17.842;2023-12-20T12:26:51;3.13;;;1.40;;
14292;SDS011;62290;59.420;17.842;2023-12-20T12:29:20;2.15;;;0.90;;
14292;SDS011;62290;59.420;17.842;2023-12-20T12:31:49;2.03;;;1.20;;
14292;SDS011;62290;59.420;17.842;2023-12-20T12:34:17;1.50;;;0.80;;
14292;SDS011;62290;59.420;17.842;2023-12-20T12:36:45;4.18;;;1.30;;
14292;SDS011;62290;59.420;17.842;2023-12-20T12:39:15;3.20;;;1.10;;
14292;SDS011;62290;59.420;17.842;2023-12-20T12:41:43;2.47;;;1.10;;
14292;SDS011;62290;59.420;17.842;2023-12-20T12:44:11;2.75;;;0.75;;
14292;SDS011;62290;59.420;17.842;2023-12-20T12:46:45;2.47;;;1.00;;
14292;SDS011;62290;59.420;17.842;2023-12-20T12:49:13;3.88;;;1.00;;
14292;SDS011;62290;59.420;17.842;2023-12-20T12:51:41;2.95;;;0.90;;
14292;SDS011;62290;59.420;17.842;2023-12-20T12:54:10;1.98;;;1.05;;
14292;SDS011;62290;59.420;17.842;2023-12-20T12:56:39;1.30;;;1.05;;
14292;SDS011;62290;59.420;17.842;2023-12-20T12:59:08;1.85;;;1.00;;
14292;SDS011;62290;59.420;17.842;2023-12-20T13:01:36;1.38;;;0.73;;
14292;SDS011;62290;59.420;17.842;2023-12-20T13:04:07;1.92;;;1.27;;
14292;SDS011;62290;59.420;17.842;2023-12-20T13:06:37;2.35;;;1.33;;
14292;SDS011;62290;59.420;17.842;2023-12-20T13:09:07;2.38;;;0.90;;
14292;SDS011;62290;59.420;17.842;2023-12-20T13:11:36;4.07;;;1.00;;
14292;SDS011;62290;59.420;17.842;2023-12-20T13:14:04;1.42;;;0.77;;
14292;SDS011;62290;59.420;17.842;2023-12-20T13:16:32;2.75;;;1.17;;
14292;SDS011;62290;59.420;17.842;2023-12-20T13:19:01;1.40;;;0.90;;
14292;SDS011;62290;59.420;17.842;2023-12-20T13:21:30;1.70;;;0.77;;
14292;SDS011;62290;59.420;17.842;2023-12-20T13:23:58;1.02;;;0.80;;
14292;SDS011;62290;59.420;17.842;2023-12-20T13:26:26;1.33;;;0.70;;
14292;SDS011;62290;59.420;17.842;2023-12-20T13:28:54;1.63;;;0.82;;
14292;SDS011;62290;59.420;17.842;2023-12-20T13:31:22;1.70;;;1.00;;
14292;SDS011;62290;59.420;17.842;2023-12-20T13:33:50;1.00;;;0.80;;
14292;SDS011;62290;59.420;17.842;2023-12-20T13:36:19;1.88;;;0.90;;
14292;SDS011;62290;59.420;17.842;2023-12-20T13:38:48;0.75;;;0.68;;
14292;SDS011;62290;59.420;17.842;2023-12-20T13:41:16;0.80;;;0.65;;
14292;SDS011;62290;59.420;17.842;2023-12-20T13:43:44;1.42;;;0.77;;
14292;SDS011;62290;59.420;17.842;2023-12-20T13:46:13;2.15;;;0.93;;
14292;SDS011;62290;59.420;17.842;2023-12-20T13:48:41;1.67;;;0.85;;
14292;SDS011;62290;59.420;17.842;2023-12-20T13:51:09;1.70;;;0.70;;
14292;SDS011;62290;59.420;17.842;2023-12-20T13:53:37;1.27;;;0.70;;
14292;SDS011;62290;59.420;17.842;2023-12-20T13:56:07;1.10;;;0.70;;
14292;SDS011;62290;59.420;17.842;2023-12-20T13:58:35;1.73;;;0.80;;
14292;SDS011;62290;59.420;17.842;2023-12-20T14:01:04;1.35;;;0.90;;
14292;SDS011;62290;59.420;17.842;2023-12-20T14:03:32;1.15;;;0.80;;
14292;SDS011;62290;59.420;17.842;2023-12-20T14:06:00;1.83;;;1.08;;
14292;SDS011;62290;59.420;17.842;2023-12-20T14:08:28;2.17;;;0.80;;
14292;SDS011;62290;59.420;17.842;2023-12-20T14:10:56;1.55;;;0.90;;
14292;SDS011;62290;59.420;17.842;2023-12-20T14:13:25;1.75;;;0.80;;
14292;SDS011;62290;59.420;17.842;2023-12-20T14:15:54;3.17;;;0.98;;
14292;SDS011;62290;59.420;17.842;2023-12-20T14:18:22;1.52;;;0.80;;
14292;SDS011;62290;59.420;17.842;2023-12-20T14:20:50;2.25;;;0.93;;
14292;SDS011;62290;59.420;17.842;2023-12-20T14:23:18;2.35;;;0.90;;
14292;SDS011;62290;59.420;17.842;2023-12-20T14:25:46;1.80;;;1.00;;
14292;SDS011;62290;59.420;17.842;2023-12-20T14:28:18;2.13;;;1.13;;
14292;SDS011;62290;59.420;17.842;2023-12-20T14:30:48;2.00;;;1.13;;
14292;SDS011;62290;59.420;17.842;2023-12-20T14:33:17;2.13;;;0.93;;
14292;SDS011;62290;59.420;17.842;2023-12-20T14:35:47;2.50;;;1.60;;
14292;SDS011;62290;59.420;17.842;2023-12-20T14:38:15;1.77;;;1.05;;
14292;SDS011;62290;59.420;17.842;2023-12-20T14:40:43;2.88;;;1.17;;
14292;SDS011;62290;59.420;17.842;2023-12-20T14:43:11;2.20;;;0.93;;
14292;SDS011;62290;59.420;17.842;2023-12-20T14:45:39;2.22;;;1.00;;